Time;durP1;ratioP1;P1;durP2;ratioP2;P2;SDS_P1;SDS_P2;PMS_P1;PMS_P2;Temp;Humidity;BMP_temperature;BMP_pressure;BME280_temperature;BME280_humidity;BME280_pressure;Samples;Min_cycle;Max_cycle;Signal;HPM_P1;HPM_P2
2022/04/12 00:00:34;;;;;;;8.40;4.60;;;10.60;18.10;;;;;;5029550;28;20391;-75
2022/04/12 00:02:59;;;;;;;10.90;4.97;;;10.60;18.30;;;;;;5023596;28;20395;-75
2022/04/12 00:05:25;;;;;;;8.80;4.97;;;10.50;18.30;;;;;;5024803;28;21029;-74
2022/04/12 00:07:51;;;;;;;6.43;4.57;;;10.50;18.50;;;;;;5029664;28;20775;-74
2022/04/12 00:10:17;;;;;;;7.97;4.70;;;10.50;18.80;;;;;;5030427;28;20482;-74
2022/04/12 00:12:43;;;;;;;7.93;4.90;;;10.40;18.80;;;;;;5028306;28;20401;-74
2022/04/12 00:15:10;;;;;;;10.55;4.40;;;10.50;18.70;;;;;;5026691;28;20399;-76
2022/04/12 00:20:26;;;;;;;7.82;4.90;;;10.40;18.80;;;;;;5027133;28;20426;-76
2022/04/12 00:22:55;;;;;;;8.93;4.75;;;10.40;18.90;;;;;;5031025;28;20876;-75
2022/04/12 00:25:22;;;;;;;9.07;4.63;;;10.30;19.50;;;;;;5029880;28;20469;-75
2022/04/12 00:27:49;;;;;;;8.50;5.20;;;10.30;19.10;;;;;;5031783;28;20403;-74
2022/04/12 00:30:15;;;;;;;7.00;4.50;;;10.40;19.30;;;;;;5032036;28;20756;-75
2022/04/12 00:32:42;;;;;;;8.30;4.63;;;10.40;19.10;;;;;;5031772;28;20399;-74
2022/04/12 00:35:08;;;;;;;8.40;5.05;;;10.50;19.10;;;;;;5024176;28;20401;-74
2022/04/12 00:37:34;;;;;;;7.13;4.53;;;10.40;19.50;;;;;;5032568;28;20449;-75
2022/04/12 00:40:00;;;;;;;10.40;4.82;;;10.40;19.30;;;;;;5017728;28;20894;-75
2022/04/12 00:42:26;;;;;;;8.70;4.88;;;10.50;18.60;;;;;;5030308;28;20393;-75
2022/04/12 00:44:52;;;;;;;7.65;4.85;;;10.40;18.80;;;;;;5041225;28;20460;-75
2022/04/12 00:47:18;;;;;;;8.27;5.07;;;10.40;19.40;;;;;;5043274;28;20429;-74
2022/04/12 00:49:43;;;;;;;9.50;5.60;;;10.40;19.50;;;;;;5046067;28;20518;-75
2022/04/12 00:52:11;;;;;;;9.98;5.00;;;10.40;20.00;;;;;;5025181;28;20405;-75
2022/04/12 00:54:38;;;;;;;8.70;5.00;;;10.30;19.20;;;;;;5029547;28;20395;-75
2022/04/12 00:57:05;;;;;;;8.02;4.95;;;10.30;19.60;;;;;;5018227;28;20459;-75
2022/04/12 00:59:34;;;;;;;12.50;5.40;;;10.30;19.60;;;;;;5027877;28;20445;-75
2022/04/12 01:02:05;;;;;;;12.50;5.10;;;10.30;19.60;;;;;;5029504;28;20868;-75
2022/04/12 01:04:32;;;;;;;8.63;5.13;;;10.30;19.50;;;;;;5028121;28;20746;-75
2022/04/12 01:06:58;;;;;;;9.93;5.53;;;10.30;19.80;;;;;;5029875;28;20387;-75
2022/04/12 01:09:27;;;;;;;8.48;5.40;;;10.30;19.60;;;;;;5028229;28;20491;-76
2022/04/12 01:11:53;;;;;;;6.75;5.00;;;10.30;19.90;;;;;;5028872;28;20542;-76
2022/04/12 01:14:20;;;;;;;8.80;5.80;;;10.30;20.00;;;;;;5028255;28;20785;-75
2022/04/12 01:16:46;;;;;;;8.77;5.80;;;10.30;20.00;;;;;;5035709;28;20390;-74
2022/04/12 01:19:11;;;;;;;8.37;5.23;;;10.30;20.00;;;;;;5044445;28;20480;-75
2022/04/12 01:21:53;;;;;;;8.93;5.03;;;10.30;19.70;;;;;;5048771;28;20398;-74
2022/04/12 01:24:19;;;;;;;9.00;4.60;;;10.40;19.80;;;;;;5047210;28;20391;-74
2022/04/12 01:26:46;;;;;;;8.25;5.60;;;10.40;19.50;;;;;;5044937;28;20405;-74
2022/04/12 01:29:12;;;;;;;10.27;6.10;;;10.30;20.10;;;;;;5031247;28;20449;-74
2022/04/12 01:31:37;;;;;;;6.15;4.80;;;10.20;20.20;;;;;;5036811;28;20395;-74
2022/04/12 01:34:03;;;;;;;7.82;5.60;;;10.30;20.10;;;;;;5049699;28;20413;-75
2022/04/12 01:36:28;;;;;;;8.60;4.90;;;10.30;19.90;;;;;;5048626;28;20403;-73
2022/04/12 01:38:54;;;;;;;10.88;5.28;;;10.30;19.60;;;;;;5041700;28;20415;-75
2022/04/12 01:41:19;;;;;;;8.10;5.97;;;10.30;19.70;;;;;;5041003;28;20430;-74
2022/04/12 01:43:45;;;;;;;7.00;5.25;;;10.40;19.80;;;;;;5043400;28;20395;-76
2022/04/12 01:46:11;;;;;;;8.17;5.40;;;10.40;19.90;;;;;;5038560;28;20392;-75
2022/04/12 01:48:36;;;;;;;7.75;5.00;;;10.40;20.40;;;;;;5034395;28;20407;-75
2022/04/12 01:51:02;;;;;;;7.50;5.30;;;10.40;21.30;;;;;;5028351;28;20461;-75
2022/04/12 01:53:28;;;;;;;7.03;4.77;;;10.40;20.30;;;;;;5041876;28;20406;-74
2022/04/12 01:55:53;;;;;;;6.97;4.80;;;10.50;19.80;;;;;;5040012;28;20461;-74
2022/04/12 01:58:19;;;;;;;10.37;4.63;;;10.60;20.00;;;;;;5032528;28;20472;-73
2022/04/12 02:00:44;;;;;;;9.63;5.50;;;10.60;20.20;;;;;;5040790;28;20414;-75
2022/04/12 02:03:10;;;;;;;7.13;5.00;;;10.70;19.70;;;;;;5049349;28;20424;-75
2022/04/12 02:05:36;;;;;;;7.60;4.97;;;10.70;19.30;;;;;;5039606;28;20396;-74
2022/04/12 02:08:02;;;;;;;10.37;5.90;;;10.70;19.70;;;;;;5040340;28;20856;-74
2022/04/12 02:10:28;;;;;;;6.70;4.88;;;10.60;19.60;;;;;;5036379;28;20446;-74
2022/04/12 02:12:53;;;;;;;8.35;5.47;;;10.70;19.30;;;;;;5038677;28;20403;-74
2022/04/12 02:15:19;;;;;;;8.55;5.43;;;10.80;19.50;;;;;;5036324;28;20399;-72
2022/04/12 02:17:44;;;;;;;8.93;4.80;;;10.80;19.10;;;;;;5038275;28;20391;-73
2022/04/12 02:20:10;;;;;;;8.80;5.13;;;10.80;19.00;;;;;;5031860;28;20404;-74
2022/04/12 02:22:36;;;;;;;9.98;5.55;;;10.90;18.80;;;;;;5028865;28;20523;-74
2022/04/12 02:25:03;;;;;;;6.43;5.00;;;10.90;18.80;;;;;;5029036;28;20430;-74
2022/04/12 02:27:28;;;;;;;8.63;5.30;;;10.90;18.90;;;;;;5021785;28;20399;-74
2022/04/12 02:29:54;;;;;;;8.23;5.20;;;10.90;18.90;;;;;;5023204;28;20409;-74
2022/04/12 02:32:19;;;;;;;8.20;5.30;;;10.90;18.90;;;;;;5027601;28;20501;-74
2022/04/12 02:34:45;;;;;;;7.15;4.80;;;11.00;18.90;;;;;;5031743;28;20418;-75
2022/04/12 02:37:10;;;;;;;8.63;5.70;;;11.00;18.80;;;;;;5030175;28;20423;-75
2022/04/12 02:39:36;;;;;;;9.13;5.22;;;11.10;18.70;;;;;;5030180;28;20446;-74
2022/04/12 02:42:02;;;;;;;9.27;5.10;;;11.10;18.70;;;;;;5027100;28;20445;-74
2022/04/12 02:44:27;;;;;;;7.43;4.82;;;11.10;18.50;;;;;;5025021;28;20412;-74
2022/04/12 02:46:53;;;;;;;7.82;5.28;;;11.10;18.80;;;;;;5025502;28;20757;-74
2022/04/12 02:49:19;;;;;;;10.10;5.30;;;11.00;19.10;;;;;;5025099;28;20399;-74
2022/04/12 02:51:45;;;;;;;6.60;5.00;;;11.00;18.80;;;;;;5024039;28;20826;-75
2022/04/12 02:54:12;;;;;;;8.70;5.30;;;11.00;18.80;;;;;;5022899;28;20469;-75
2022/04/12 02:56:37;;;;;;;9.57;5.00;;;10.90;19.00;;;;;;5019418;28;20408;-75
2022/04/12 02:59:03;;;;;;;9.00;5.50;;;10.90;19.00;;;;;;5022426;28;20925;-74
2022/04/12 03:01:28;;;;;;;7.60;5.10;;;10.90;19.80;;;;;;5018733;28;20399;-74
2022/04/12 03:03:54;;;;;;;7.90;5.10;;;10.90;19.00;;;;;;5027031;28;20466;-74
2022/04/12 03:06:20;;;;;;;5.80;4.70;;;10.90;18.90;;;;;;5025789;28;20472;-74
2022/04/12 03:08:45;;;;;;;10.53;5.47;;;10.90;18.70;;;;;;5026856;28;20394;-75
2022/04/12 03:11:11;;;;;;;9.30;5.33;;;10.80;18.90;;;;;;5026034;28;20474;-74
2022/04/12 03:13:36;;;;;;;6.27;4.63;;;10.80;19.30;;;;;;5025181;28;20463;-75
2022/04/12 03:16:02;;;;;;;8.85;5.38;;;10.80;19.70;;;;;;5026764;28;20402;-76
2022/04/12 03:18:27;;;;;;;10.27;5.70;;;10.80;19.90;;;;;;5024512;28;20916;-76
2022/04/12 03:20:53;;;;;;;9.63;5.20;;;10.80;19.50;;;;;;5026697;28;20406;-74
2022/04/12 03:23:18;;;;;;;7.83;5.20;;;10.80;19.80;;;;;;5026065;28;20895;-75
2022/04/12 03:25:44;;;;;;;9.57;5.37;;;10.80;19.90;;;;;;5026194;28;20864;-74
2022/04/12 03:28:10;;;;;;;8.85;4.93;;;10.80;19.80;;;;;;5026752;28;20864;-75
2022/04/12 03:30:36;;;;;;;9.50;5.65;;;10.80;20.90;;;;;;5024792;28;20389;-76
2022/04/12 03:33:02;;;;;;;9.20;5.60;;;10.80;20.00;;;;;;5026804;28;20399;-74
2022/04/12 03:35:28;;;;;;;8.65;4.95;;;10.80;20.50;;;;;;5023666;28;20399;-74
2022/04/12 03:38:01;;;;;;;8.87;5.00;;;10.90;19.90;;;;;;5023705;28;20412;-75
2022/04/12 03:40:30;;;;;;;7.13;5.00;;;10.80;19.90;;;;;;5022366;28;20407;-74
2022/04/12 03:43:00;;;;;;;11.73;5.47;;;10.80;20.60;;;;;;5027362;28;20391;-75
2022/04/12 03:45:26;;;;;;;10.75;5.30;;;10.80;19.80;;;;;;5026384;28;20390;-76
2022/04/12 03:47:51;;;;;;;8.10;5.30;;;10.70;20.50;;;;;;5023632;28;20778;-76
2022/04/12 03:50:17;;;;;;;7.32;4.90;;;10.70;20.00;;;;;;5030324;28;20391;-76
2022/04/12 03:52:42;;;;;;;7.80;5.00;;;10.80;20.00;;;;;;5022574;28;20403;-76
2022/04/12 03:55:10;;;;;;;7.40;4.90;;;10.90;19.80;;;;;;5027731;28;20733;-75
2022/04/12 03:57:36;;;;;;;7.63;5.00;;;10.80;19.60;;;;;;5023151;28;20458;-75
2022/04/12 04:00:08;;;;;;;9.40;5.50;;;10.80;19.90;;;;;;5031661;28;20503;-76
2022/04/12 04:02:37;;;;;;;8.85;5.43;;;10.80;19.90;;;;;;5027999;28;20440;-75
2022/04/12 04:05:04;;;;;;;9.68;5.15;;;10.90;19.30;;;;;;5028175;28;20404;-77
2022/04/12 04:07:29;;;;;;;10.32;5.40;;;10.80;20.00;;;;;;5021877;28;20407;-76
2022/04/12 04:09:55;;;;;;;6.60;4.82;;;10.70;20.20;;;;;;5031015;28;20403;-76
2022/04/12 04:12:22;;;;;;;12.60;5.33;;;10.90;19.80;;;;;;5029393;28;20391;-77
2022/04/12 04:14:48;;;;;;;7.78;4.78;;;10.80;19.90;;;;;;5027924;28;20444;-77
2022/04/12 04:17:14;;;;;;;9.32;5.10;;;10.70;19.80;;;;;;5029713;28;20888;-76
2022/04/12 04:19:42;;;;;;;8.90;5.18;;;10.70;19.90;;;;;;5028327;28;20412;-76
2022/04/12 04:22:07;;;;;;;7.65;5.28;;;10.70;20.00;;;;;;5035415;28;20857;-75
2022/04/12 04:24:33;;;;;;;9.57;5.47;;;10.60;20.00;;;;;;5033070;28;20495;-75
2022/04/12 04:26:58;;;;;;;6.77;5.63;;;10.60;20.60;;;;;;5036199;28;20426;-76
2022/04/12 04:29:27;;;;;;;7.53;5.32;;;10.50;20.80;;;;;;5024589;28;20438;-76
2022/04/12 04:31:52;;;;;;;11.48;5.00;;;10.50;20.60;;;;;;5024310;28;20403;-76
2022/04/12 04:34:18;;;;;;;12.25;5.80;;;10.50;20.50;;;;;;5030226;28;21023;-76
2022/04/12 04:36:44;;;;;;;8.07;5.22;;;10.40;21.20;;;;;;5032193;28;20395;-76
2022/04/12 04:39:10;;;;;;;9.23;4.78;;;10.40;21.40;;;;;;5028493;28;20409;-76
2022/04/12 04:41:35;;;;;;;8.10;4.82;;;10.40;21.70;;;;;;5034329;28;20393;-76
2022/04/12 04:44:01;;;;;;;9.15;5.38;;;10.30;21.50;;;;;;5035874;28;20910;-76
2022/04/12 04:46:28;;;;;;;7.38;5.45;;;10.40;21.80;;;;;;5034501;28;20403;-76
2022/04/12 04:48:53;;;;;;;7.97;4.90;;;10.30;22.10;;;;;;5043252;28;20526;-76
2022/04/12 04:51:19;;;;;;;8.80;4.85;;;10.30;21.50;;;;;;5031040;28;20448;-77
2022/04/12 04:53:49;;;;;;;13.13;5.20;;;10.30;21.50;;;;;;5037349;28;20407;-75
2022/04/12 04:56:15;;;;;;;7.68;5.10;;;10.20;22.10;;;;;;5040276;28;20410;-76
2022/04/12 04:58:41;;;;;;;6.90;5.20;;;10.10;22.70;;;;;;5028248;28;20423;-76
2022/04/12 05:01:07;;;;;;;6.50;4.72;;;10.00;22.40;;;;;;5029821;28;20493;-76
2022/04/12 05:03:32;;;;;;;10.33;5.20;;;9.90;23.30;;;;;;5037565;28;20478;-76
2022/04/12 05:05:58;;;;;;;8.27;4.57;;;9.90;23.50;;;;;;5032077;28;20383;-77
2022/04/12 05:08:24;;;;;;;11.50;5.47;;;10.00;23.90;;;;;;5031775;28;20486;-77
2022/04/12 05:10:50;;;;;;;10.73;5.43;;;10.00;23.40;;;;;;5028471;28;20410;-77
2022/04/12 05:13:16;;;;;;;10.50;5.78;;;10.00;23.90;;;;;;5042124;28;20433;-76
2022/04/12 05:15:41;;;;;;;7.10;5.05;;;10.20;23.40;;;;;;5044357;28;20397;-76
2022/04/12 05:18:13;;;;;;;9.83;5.27;;;10.20;23.60;;;;;;5044375;28;20483;-77
2022/04/12 05:20:40;;;;;;;8.73;4.90;;;10.20;23.60;;;;;;5041899;28;20410;-76
2022/04/12 05:23:08;;;;;;;8.33;5.10;;;10.10;23.70;;;;;;5033271;28;20443;-76
2022/04/12 05:25:36;;;;;;;7.07;4.60;;;10.10;23.80;;;;;;5028915;28;20402;-76
2022/04/12 05:28:07;;;;;;;9.38;4.70;;;10.10;23.80;;;;;;5028965;28;20412;-77
2022/04/12 05:31:09;;;;;;;5.43;4.18;;;10.20;24.40;;;;;;5030672;28;20476;-76
2022/04/12 05:33:34;;;;;;;8.77;5.00;;;10.30;23.90;;;;;;5026388;28;20414;-76
2022/04/12 05:36:04;;;;;;;10.18;5.18;;;10.30;23.70;;;;;;5022606;28;20417;-77
2022/04/12 05:38:29;;;;;;;6.35;4.50;;;10.30;23.80;;;;;;5030080;28;20423;-77
2022/04/12 05:40:55;;;;;;;12.38;4.85;;;10.50;23.10;;;;;;5030693;28;20399;-78
2022/04/12 05:43:21;;;;;;;7.30;4.50;;;10.50;23.50;;;;;;5019733;28;20900;-78
2022/04/12 05:45:46;;;;;;;10.57;4.60;;;10.60;23.00;;;;;;5027502;28;20405;-77
2022/04/12 05:48:13;;;;;;;11.50;5.00;;;10.70;23.20;;;;;;5027765;28;20750;-76
2022/04/12 05:50:39;;;;;;;7.10;4.90;;;10.80;22.60;;;;;;5019036;28;20459;-76
2022/04/12 05:53:49;;;;;;;9.93;4.80;;;10.80;22.40;;;;;;5025758;28;20424;-75
2022/04/12 05:56:19;;;;;;;7.18;4.60;;;10.90;22.20;;;;;;5025519;28;20778;-76
2022/04/12 05:58:46;;;;;;;10.57;4.43;;;10.90;22.00;;;;;;5035782;28;20541;-76
2022/04/12 06:01:25;;;;;;;9.57;4.50;;;11.00;22.60;;;;;;5026407;28;20608;-76
2022/04/12 06:03:51;;;;;;;9.68;4.70;;;11.10;21.80;;;;;;5027583;28;20404;-77
2022/04/12 06:06:16;;;;;;;7.25;4.63;;;11.10;22.30;;;;;;5023180;28;20529;-75
2022/04/12 06:08:42;;;;;;;7.78;4.90;;;11.20;21.20;;;;;;5023868;28;20412;-75
2022/04/12 06:11:07;;;;;;;14.60;5.22;;;11.30;21.20;;;;;;5015170;28;20455;-76
2022/04/12 06:13:33;;;;;;;10.30;5.10;;;11.30;20.40;;;;;;5030146;28;20407;-75
2022/04/12 06:15:58;;;;;;;10.40;4.70;;;11.40;20.60;;;;;;5034278;28;20442;-74
2022/04/12 06:18:24;;;;;;;8.87;5.03;;;11.50;20.60;;;;;;5027595;28;20465;-74
2022/04/12 06:20:50;;;;;;;12.23;5.37;;;11.60;20.30;;;;;;5024395;28;20467;-74
2022/04/12 06:23:17;;;;;;;8.05;5.30;;;11.70;20.20;;;;;;5020110;28;20503;-78
2022/04/12 06:25:43;;;;;;;9.10;5.00;;;11.80;19.90;;;;;;5024159;28;20414;-73
2022/04/12 06:28:09;;;;;;;9.53;5.33;;;11.90;19.70;;;;;;5019191;28;20418;-75
2022/04/12 06:30:37;;;;;;;8.83;5.47;;;12.10;19.70;;;;;;5022573;28;20474;-76
2022/04/12 06:33:02;;;;;;;9.33;5.47;;;12.20;18.50;;;;;;5015871;28;20549;-75
2022/04/12 06:35:28;;;;;;;7.57;4.70;;;12.30;18.40;;;;;;5021731;28;20407;-75
2022/04/12 06:37:56;;;;;;;10.90;5.60;;;12.40;17.70;;;;;;5023222;28;20437;-75
2022/04/12 06:40:23;;;;;;;10.93;6.10;;;12.50;18.20;;;;;;5027339;28;20407;-77
2022/04/12 06:42:49;;;;;;;11.20;5.85;;;12.50;18.10;;;;;;5025368;28;20905;-76
2022/04/12 06:45:15;;;;;;;7.53;5.33;;;12.60;18.10;;;;;;5030889;28;20404;-76
2022/04/12 06:47:42;;;;;;;10.02;5.72;;;12.70;18.00;;;;;;5026786;28;20412;-77
2022/04/12 06:50:09;;;;;;;15.77;6.55;;;12.80;17.50;;;;;;5026282;28;20773;-77
2022/04/12 06:52:36;;;;;;;10.17;6.33;;;12.90;16.80;;;;;;5017472;28;20413;-75
2022/04/12 06:55:01;;;;;;;10.25;5.50;;;13.10;16.20;;;;;;5026456;28;20449;-76
2022/04/12 06:57:34;;;;;;;8.27;5.40;;;13.10;16.10;;;;;;5028047;28;20760;-75
2022/04/12 07:00:00;;;;;;;10.30;5.75;;;13.20;16.20;;;;;;5023108;28;20420;-78
2022/04/12 07:02:26;;;;;;;8.77;5.60;;;13.30;16.40;;;;;;5022048;28;20842;-75
2022/04/12 07:04:51;;;;;;;8.93;5.00;;;13.30;16.20;;;;;;5028186;28;20391;-78
2022/04/12 07:07:17;;;;;;;9.73;5.47;;;13.40;16.00;;;;;;5028781;28;20427;-76
2022/04/12 07:09:42;;;;;;;14.90;6.50;;;13.50;15.90;;;;;;5027363;28;20408;-76
2022/04/12 07:12:08;;;;;;;9.20;5.40;;;13.70;15.80;;;;;;5023291;28;20409;-77
2022/04/12 07:14:34;;;;;;;8.10;5.60;;;13.80;15.00;;;;;;5025617;28;20410;-77
2022/04/12 07:17:00;;;;;;;9.10;5.70;;;13.90;15.30;;;;;;5028849;28;20597;-80
2022/04/12 07:19:26;;;;;;;11.02;5.55;;;13.90;14.70;;;;;;5025862;28;20424;-76
2022/04/12 07:21:52;;;;;;;9.07;5.60;;;14.00;14.50;;;;;;5023907;28;20453;-75
2022/04/12 07:24:18;;;;;;;7.22;4.65;;;14.20;14.80;;;;;;5026774;28;20397;-76
2022/04/12 07:26:44;;;;;;;7.20;4.90;;;14.30;14.20;;;;;;5029223;28;20740;-77
2022/04/12 07:29:09;;;;;;;14.73;5.80;;;14.40;14.10;;;;;;5028140;28;20403;-76
2022/04/12 07:31:35;;;;;;;9.10;5.43;;;14.40;14.10;;;;;;5036919;28;20441;-77
2022/04/12 07:34:01;;;;;;;9.10;5.22;;;14.50;13.80;;;;;;5032735;28;20468;-76
2022/04/12 07:36:26;;;;;;;13.45;5.40;;;14.50;14.10;;;;;;5024112;28;20409;-76
2022/04/12 07:38:52;;;;;;;6.82;4.88;;;14.70;14.00;;;;;;5031369;28;20428;-76
2022/04/12 07:41:19;;;;;;;8.80;4.90;;;14.70;13.80;;;;;;5033749;28;20760;-76
2022/04/12 07:43:45;;;;;;;9.40;4.90;;;14.80;13.40;;;;;;5028449;28;20415;-77
2022/04/12 07:46:12;;;;;;;15.32;4.53;;;14.90;13.00;;;;;;5027485;28;20853;-76
2022/04/12 07:48:42;;;;;;;9.32;5.00;;;14.90;13.40;;;;;;5037059;28;20405;-76
2022/04/12 07:51:08;;;;;;;9.82;4.60;;;15.00;12.80;;;;;;5031957;28;20485;-74
2022/04/12 07:53:34;;;;;;;10.15;4.70;;;15.00;13.70;;;;;;5051353;22;20942;-72
2022/04/12 07:56:00;;;;;;;6.32;3.90;;;15.10;13.00;;;;;;5033235;28;20391;-71
2022/04/12 07:58:25;;;;;;;11.50;5.10;;;15.10;12.90;;;;;;5034221;28;20456;-70
2022/04/12 08:00:51;;;;;;;5.97;4.20;;;15.10;13.20;;;;;;5033576;28;20390;-70
2022/04/12 08:03:20;;;;;;;6.40;4.10;;;15.20;12.90;;;;;;5032881;28;20392;-71
2022/04/12 08:05:46;;;;;;;7.80;4.28;;;15.30;13.40;;;;;;5017877;28;20488;-70
2022/04/12 08:08:12;;;;;;;7.30;4.30;;;15.30;12.70;;;;;;5015376;28;20830;-70
2022/04/12 08:10:37;;;;;;;6.38;4.20;;;15.40;12.70;;;;;;5015114;28;20554;-71
2022/04/12 08:13:03;;;;;;;9.63;3.80;;;15.50;12.30;;;;;;5022408;28;20397;-72
2022/04/12 08:15:29;;;;;;;7.60;3.90;;;15.60;12.10;;;;;;5026184;28;20399;-71
2022/04/12 08:17:54;;;;;;;6.43;4.10;;;15.60;12.40;;;;;;5029813;28;20469;-71
2022/04/12 08:20:20;;;;;;;4.80;3.50;;;15.80;13.10;;;;;;5023693;28;20407;-71
2022/04/12 08:22:45;;;;;;;7.05;4.00;;;15.90;11.90;;;;;;5021790;28;20394;-71
2022/04/12 08:25:11;;;;;;;3.42;3.00;;;16.10;12.20;;;;;;5027555;28;20463;-70
2022/04/12 08:27:37;;;;;;;4.90;3.53;;;16.10;12.00;;;;;;5022878;28;20491;-70
2022/04/12 08:30:06;;;;;;;7.85;3.72;;;16.20;12.20;;;;;;5030409;28;20905;-70
2022/04/12 08:32:35;;;;;;;7.15;3.80;;;16.30;11.40;;;;;;5031566;28;20407;-72
2022/04/12 08:35:02;;;;;;;6.78;3.60;;;16.40;11.70;;;;;;5026348;28;20913;-70
2022/04/12 08:37:28;;;;;;;9.82;3.60;;;16.50;11.80;;;;;;5015386;28;20467;-70
2022/04/12 08:39:53;;;;;;;4.23;3.40;;;16.60;11.40;;;;;;5026312;28;20423;-71
2022/04/12 08:42:21;;;;;;;7.20;3.47;;;16.60;10.80;;;;;;5014124;28;20409;-69
2022/04/12 08:44:48;;;;;;;6.65;3.60;;;16.60;11.00;;;;;;5012864;28;20401;-71
2022/04/12 08:47:16;;;;;;;7.28;4.00;;;16.70;11.70;;;;;;5025018;28;20391;-70
2022/04/12 08:49:42;;;;;;;7.38;3.85;;;16.70;11.30;;;;;;5028767;28;20403;-70
2022/04/12 08:52:12;;;;;;;7.38;3.70;;;16.80;11.00;;;;;;5021239;28;20469;-71
2022/04/12 08:54:42;;;;;;;7.00;3.70;;;16.90;11.00;;;;;;5031628;28;20402;-72
2022/04/12 08:57:09;;;;;;;5.25;3.60;;;16.90;10.90;;;;;;5021172;28;20918;-72
2022/04/12 08:59:34;;;;;;;8.07;3.78;;;16.90;10.50;;;;;;5027581;28;20980;-72
2022/04/12 09:02:00;;;;;;;6.60;3.60;;;16.90;10.80;;;;;;5023041;28;20400;-73
2022/04/12 09:04:27;;;;;;;7.13;4.10;;;16.90;11.10;;;;;;5021140;28;20893;-72
2022/04/12 09:06:55;;;;;;;8.05;4.07;;;17.00;11.60;;;;;;5015055;28;20392;-73
2022/04/12 09:09:29;;;;;;;7.00;4.00;;;17.00;11.40;;;;;;5011381;28;20436;-72
2022/04/12 09:12:06;;;;;;;4.90;3.70;;;17.20;11.30;;;;;;5023540;28;20434;-73
2022/04/12 09:14:56;;;;;;;7.95;3.83;;;17.30;10.60;;;;;;5030368;28;20411;-72
2022/04/12 09:17:34;;;;;;;8.05;3.55;;;17.40;10.50;;;;;;5025725;28;20397;-72
2022/04/12 09:19:59;;;;;;;5.22;3.90;;;17.50;10.20;;;;;;5021693;28;20411;-73
2022/04/12 09:22:27;;;;;;;4.85;3.20;;;17.50;10.60;;;;;;5024468;28;20406;-73
2022/04/12 09:24:54;;;;;;;5.63;2.90;;;17.60;9.70;;;;;;5022366;28;20574;-72
2022/04/12 09:27:22;;;;;;;6.97;3.70;;;17.60;9.90;;;;;;5030382;28;20391;-72
2022/04/12 09:29:51;;;;;;;8.10;3.50;;;17.60;10.30;;;;;;5028595;28;20398;-73
2022/04/12 09:32:24;;;;;;;6.60;3.70;;;17.70;10.10;;;;;;5020248;28;20400;-73
2022/04/12 09:34:51;;;;;;;8.02;3.40;;;17.90;10.40;;;;;;5013882;28;20405;-73
2022/04/12 09:37:25;;;;;;;4.75;3.13;;;17.80;9.90;;;;;;5019942;28;20491;-72
2022/04/12 09:39:59;;;;;;;4.40;3.10;;;17.90;9.70;;;;;;5025672;28;20926;-72
2022/04/12 09:42:50;;;;;;;7.78;3.30;;;17.90;10.10;;;;;;5023484;28;20403;-73
2022/04/12 09:45:22;;;;;;;6.03;3.00;;;18.10;10.00;;;;;;5008664;28;20384;-74
2022/04/12 09:47:49;;;;;;;5.63;2.90;;;18.30;9.50;;;;;;5015471;28;20405;-72
2022/04/12 09:50:15;;;;;;;4.90;3.50;;;18.40;9.60;;;;;;5018010;28;20797;-73
2022/04/12 09:53:02;;;;;;;4.30;3.20;;;18.40;9.50;;;;;;5027960;28;20493;-72
2022/04/12 09:55:45;;;;;;;4.73;2.60;;;18.60;9.00;;;;;;5014943;28;20809;-72
2022/04/12 09:58:21;;;;;;;5.38;2.70;;;18.70;8.70;;;;;;5016301;28;20454;-72
2022/04/12 10:00:49;;;;;;;5.32;2.67;;;18.70;8.70;;;;;;5024107;28;20985;-73
2022/04/12 10:03:17;;;;;;;5.38;3.28;;;18.80;8.90;;;;;;5006156;28;20395;-73
2022/04/12 10:05:43;;;;;;;7.45;3.35;;;18.90;8.90;;;;;;5022393;28;20387;-73
2022/04/12 10:08:11;;;;;;;6.22;2.90;;;19.00;8.40;;;;;;5020831;28;20797;-73
2022/04/12 10:10:40;;;;;;;5.90;3.00;;;19.20;8.10;;;;;;5014595;28;20550;-73
2022/04/12 10:13:07;;;;;;;6.88;3.10;;;19.30;8.10;;;;;;5018514;28;20407;-73
2022/04/12 10:15:33;;;;;;;6.60;3.10;;;19.40;8.10;;;;;;5022657;28;20397;-73
2022/04/12 10:17:59;;;;;;;6.72;2.80;;;19.40;7.00;;;;;;5014549;28;20466;-74
2022/04/12 10:20:25;;;;;;;4.30;2.53;;;19.40;7.10;;;;;;5021162;28;20448;-73
2022/04/12 10:22:51;;;;;;;5.00;2.63;;;19.50;7.90;;;;;;5014675;28;20432;-74
2022/04/12 10:25:22;;;;;;;4.85;3.10;;;19.70;6.50;;;;;;5007210;28;20818;-74
2022/04/12 10:27:59;;;;;;;7.47;3.08;;;19.70;7.00;;;;;;5015835;28;20479;-71
2022/04/12 10:30:30;;;;;;;5.93;3.00;;;19.80;6.40;;;;;;5015807;28;20488;-73
2022/04/12 10:33:07;;;;;;;5.63;3.40;;;19.90;6.40;;;;;;5011351;28;20422;-72
2022/04/12 10:35:45;;;;;;;5.60;3.37;;;19.90;6.30;;;;;;5008967;28;20409;-72
2022/04/12 10:38:12;;;;;;;10.30;4.80;;;20.00;6.40;;;;;;5009872;28;20868;-73
2022/04/12 10:40:43;;;;;;;6.30;2.90;;;20.10;5.70;;;;;;5013135;28;20405;-72
2022/04/12 10:43:11;;;;;;;4.60;2.72;;;20.20;5.80;;;;;;5013663;28;20481;-72
2022/04/12 10:45:43;;;;;;;4.10;3.00;;;20.20;5.30;;;;;;5012200;28;20424;-73
2022/04/12 10:48:19;;;;;;;9.20;2.88;;;20.20;6.20;;;;;;5011534;28;20877;-74
2022/04/12 10:50:46;;;;;;;6.40;2.80;;;20.40;5.20;;;;;;5012225;28;20405;-73
2022/04/12 10:53:12;;;;;;;8.35;3.00;;;20.30;5.10;;;;;;5011473;28;20487;-72
2022/04/12 10:55:43;;;;;;;6.03;3.35;;;20.40;5.50;;;;;;5017901;28;20400;-71
2022/04/12 10:58:13;;;;;;;9.43;2.72;;;20.40;5.70;;;;;;5024689;28;20441;-73
2022/04/12 11:00:45;;;;;;;5.45;2.70;;;20.50;5.60;;;;;;5013352;28;20417;-73
2022/04/12 11:03:12;;;;;;;4.78;2.90;;;20.50;5.90;;;;;;5012076;28;20756;-72
2022/04/12 11:05:44;;;;;;;7.00;2.53;;;20.60;6.10;;;;;;5015466;28;20393;-72
2022/04/12 11:08:13;;;;;;;4.65;2.50;;;20.60;4.90;;;;;;5011314;28;20409;-72
2022/04/12 11:10:39;;;;;;;9.25;2.90;;;20.60;5.10;;;;;;5016341;28;20440;-72
2022/04/12 11:13:10;;;;;;;7.50;2.50;;;20.60;5.60;;;;;;5020523;28;20420;-72
2022/04/12 11:15:37;;;;;;;5.03;2.90;;;20.70;6.20;;;;;;5014206;28;20854;-72
2022/04/12 11:18:14;;;;;;;8.25;3.03;;;20.90;6.00;;;;;;5019246;28;20880;-72
2022/04/12 11:20:46;;;;;;;4.35;2.60;;;21.00;4.60;;;;;;5027889;28;20415;-71
2022/04/12 11:23:13;;;;;;;4.15;2.78;;;21.00;4.80;;;;;;5016479;28;20443;-71
2022/04/12 11:25:46;;;;;;;7.40;3.30;;;21.00;4.60;;;;;;5021106;28;20388;-70
2022/04/12 11:28:15;;;;;;;5.75;2.33;;;21.00;5.50;;;;;;5013144;28;20392;-73
2022/04/12 11:30:51;;;;;;;5.90;2.60;;;21.10;4.80;;;;;;5017797;28;20407;-74
2022/04/12 11:33:16;;;;;;;5.80;2.40;;;21.10;4.60;;;;;;5015433;28;20408;-72
2022/04/12 11:35:43;;;;;;;9.00;2.40;;;21.20;4.40;;;;;;5018720;28;20393;-73
2022/04/12 11:38:08;;;;;;;8.50;2.50;;;21.30;4.50;;;;;;5013801;28;20422;-73
2022/04/12 11:40:34;;;;;;;6.25;2.20;;;21.40;5.00;;;;;;5011516;28;20413;-73
2022/04/12 11:42:59;;;;;;;4.00;2.30;;;21.60;4.20;;;;;;5011603;28;20393;-72
2022/04/12 11:45:33;;;;;;;5.05;2.75;;;21.70;3.80;;;;;;5012255;28;20572;-73
2022/04/12 11:47:58;;;;;;;5.10;2.90;;;22.00;4.60;;;;;;5007870;28;20460;-72
2022/04/12 11:50:24;;;;;;;4.03;2.50;;;22.20;3.80;;;;;;5011718;28;20484;-73
2022/04/12 11:52:50;;;;;;;3.80;2.80;;;22.40;3.10;;;;;;5011415;28;20411;-71
2022/04/12 11:55:15;;;;;;;6.10;2.47;;;22.50;4.00;;;;;;5012310;28;20925;-74
2022/04/12 11:57:42;;;;;;;4.93;3.07;;;22.60;3.70;;;;;;5012735;28;20420;-71
2022/04/12 12:00:08;;;;;;;5.20;2.70;;;22.80;3.10;;;;;;5009081;28;20411;-72
2022/04/12 12:02:39;;;;;;;2.95;2.30;;;22.80;2.90;;;;;;5011240;28;20401;-73
2022/04/12 12:05:10;;;;;;;5.85;2.38;;;22.80;2.80;;;;;;5008511;28;20444;-72
2022/04/12 12:07:36;;;;;;;4.47;2.72;;;23.00;2.30;;;;;;5006805;28;20396;-73
2022/04/12 12:10:02;;;;;;;4.30;2.80;;;23.10;2.20;;;;;;5004017;28;20409;-73
2022/04/12 12:12:32;;;;;;;8.38;2.70;;;23.20;2.20;;;;;;5010330;28;20415;-72
2022/04/12 12:14:57;;;;;;;5.80;2.28;;;23.70;2.20;;;;;;5011881;28;20480;-72
2022/04/12 12:17:25;;;;;;;5.88;2.40;;;23.90;1.50;;;;;;5014513;28;20420;-72
2022/04/12 12:19:50;;;;;;;5.30;2.80;;;24.10;1.90;;;;;;5015524;28;20503;-72
2022/04/12 12:22:17;;;;;;;3.58;2.13;;;24.20;1.00;;;;;;5013988;28;20501;-72
2022/04/12 12:24:57;;;;;;;6.53;2.30;;;24.20;1.00;;;;;;4994298;28;20464;-74
2022/04/12 12:27:37;;;;;;;5.97;2.00;;;24.20;1.00;;;;;;5012994;28;20480;-73
2022/04/12 12:30:18;;;;;;;4.38;2.33;;;24.10;1.00;;;;;;5015755;28;20450;-72
2022/04/12 12:32:44;;;;;;;5.05;2.55;;;24.20;1.00;;;;;;5010905;28;20486;-72
2022/04/12 12:35:15;;;;;;;4.80;2.70;;;24.30;1.00;;;;;;5016522;28;20399;-73
2022/04/12 12:37:43;;;;;;;6.40;2.60;;;24.40;1.00;;;;;;5011457;28;20466;-72
2022/04/12 12:40:20;;;;;;;3.03;2.40;;;24.40;1.00;;;;;;5017038;28;20446;-72
2022/04/12 12:42:48;;;;;;;5.70;2.20;;;24.60;1.00;;;;;;5007966;28;20397;-72
2022/04/12 12:45:19;;;;;;;4.38;2.35;;;24.50;1.00;;;;;;5008416;28;20397;-72
2022/04/12 12:47:49;;;;;;;4.15;2.35;;;24.50;1.00;;;;;;5012402;28;20393;-73
2022/04/12 12:50:16;;;;;;;4.50;1.90;;;24.70;1.00;;;;;;5013477;28;20399;-71
2022/04/12 12:52:45;;;;;;;5.57;2.47;;;24.70;1.00;;;;;;5012755;28;20444;-73